Whitwell, TN (37397)

1:40 PM CDT on September 23, 2014 (GMT -0500)
Southend | Change Station
CLOSE
Current Station
Personal Weather Station
Location: Dunlap, TN
Elevation: 908 ft
Nearby Weather Stations

Elev 908 ft 35.30 °N, 85.43 °W | Updated 18 seconds ago

Partly Cloudy
Partly Cloudy
77.6 °F
Feels Like 79 °F
N
1.0
Wind Variable Wind from ENE
Gusts 3.0 mph

Today
High -- | Low -- °F
--% Chance of Precip.
Yesterday
High -- | Low -- °F
Precip. -- in
6:30 AM 6:37 PM
Waning Crescent, 0% visible
Pressure 30.23 in
Visibility 10.0 miles
Clouds Scattered Clouds 4500 ft
Heat Index 79 °F
Dew Point 56 °F
Humidity 47%
Rainfall 0.00 in
Snow Depth Not available.
UV 7 out of 12
Pollen 6.40 out of 12
Ozone Good
PM2.5 Good
Flu Activity Not available.
METAR KCHA 231753Z 02008KT 10SM SCT045 24/13 A3024 RMK AO2 SLP235 T02440128 10250 20144 58010

More Conditions Fewer Conditions

Pressure 30.23 in
Visibility 10.0 miles
Clouds Scattered Clouds 4500 ft
Heat Index 79 °F
Dew Point 56 °F
Humidity 47%
Rainfall 0.00 in
Snow Depth Not available.
UV 7 out of 12
Pollen 6.40 out of 12
Ozone Good
PM2.5 Good
Flu Activity Not available.
METAR KCHA 231753Z 02008KT 10SM SCT045 24/13 A3024 RMK AO2 SLP235 T02440128 10250 20144 58010

More Conditions Fewer Conditions

10-Day Weather Forecast

Almanac

Astronomy

Sep. 23, 2014 Rise Set
Actual Time 6:30 AM CDT 6:37 PM CDT
Civil Twilight 6:05 AM CDT 7:02 PM CDT
Nautical Twilight 5:35 AM CDT 7:32 PM CDT
Astronomical Twilight 5:05 AM CDT 8:02 PM CDT
Moon 5:54 AM CDT 6:16 PM CDT
Length of Visible Light 12h 57m
Length of Day
12h 06m
Tomorrow will be 2m 12s shorter.
Waning Crescent, 0% of the Moon is Illuminated
Today
Waning Crescent
Sep 24
New
Oct 1
First Quarter
Oct 8
Full
Oct 15
Last Quarter

Today's Extremes

State Highs State Lows

Community

WunderPhotos

Upload Photos

1,755,775 photos uploaded!

Nearby

Air Quality

  Air Quality AQ Index Pollutant
Yesterday Good
OZONE
Yesterday Good
PM2.5
Current Good
PM2.5
Current Good
OZONE
Tuesday Good
OZONE
Tuesday Good
PM2.5
Wednesday Good
OZONE
Wednesday Good
PM2.5

Snow Depth

Station Depth Elevation
No new snow has been reported.

Earthquake Activity

City Distance Mag. Time & Date
Sweetwater, Tennessee 67 miles 2.5 2:54 PM CDT
2014-09-20
Minimum magnitude displayed is 2.5.

Coastal Water Temperatures

Place Temperature
No Stations Reporting

Nearby Weather Stations